http://www.ohio.gov http://www.dot.state.oh.us
W W W . B U C K E Y E T R A F F I C . O R G

1-SR49 @ SR249 (200000) Status Air Temp Sfc Temp Sub Temp Dew Temp Wind Precip Traffic Updated
Sensor [A]: Atmospheric - 54.9 - - 40.1 1.9 / N - - 9/22/2014 12:02:08 PM
Sensor [0]: SR49 NB Lane Dry - 82.4 - - - - 1 / 9.9 9/22/2014 12:02:08 PM
Sensor [1]: SR 249 EB Lane Dry - 86.0 - - - - 1 / 9.9 9/22/2014 12:02:08 PM
2-SR-309 @ SR-235 (200001) Status Air Temp Sfc Temp Sub Temp Dew Temp Wind Precip Traffic Updated
Sensor [A]: Atmospheric - 72.1 - - 60.4 3.7 / N - - 8/28/2014 11:21:27 AM
Sensor [0]: SR309 EB Dry - 99.5 - - - - - 8/28/2014 11:21:27 AM
3-US24 @ Indiana Line (200002) Status Air Temp Sfc Temp Sub Temp Dew Temp Wind Precip Traffic Updated
Sensor [A]: Atmospheric - 56.1 - - 39.2 2.5 / NW - - 9/22/2014 12:02:11 PM
Sensor [0]: EB Driving Dry - 77.0 68.0 - - - 0 / 9.9 9/22/2014 12:02:11 PM
Sensor [1]: WB Driving Dry - 75.2 - - - - 0 / 9.9 9/22/2014 12:02:11 PM
4-US224 @ SR190 (200003) Status Air Temp Sfc Temp Sub Temp Dew Temp Wind Precip Traffic Updated
Sensor [A]: Atmospheric - 54.5 - - 39.2 1.2 / W - - 9/22/2014 11:59:23 AM
Sensor [0]: Eastbound Driving Lane Dry - 99.5 - - - - 1 / 65.2 9/22/2014 11:59:23 AM
5- US30 @ SR49 North (200004) Status Air Temp Sfc Temp Sub Temp Dew Temp Wind Precip Traffic Updated
Sensor [A]: Atmospheric - 54.9 - - 39.7 5.0 / NW - - 9/22/2014 12:02:47 PM
Sensor [0]: US30 Westbound Driving Dry - 78.8 - - - - 0 / 9.9 9/22/2014 12:02:47 PM
Sensor [1]: US30 Eastbound Driving Dry - 75.2 - - - - 1 / 9.9 9/22/2014 12:02:47 PM
6-US23 @ SLM 11.2 (200005) Status Air Temp Sfc Temp Sub Temp Dew Temp Wind Precip Traffic Updated
Sensor [A]: Atmospheric - 52.3 - - 38.1 3.7 / N - - 9/22/2014 12:02:50 PM
7-US30 Bypass @ SR4 (200006) Status Air Temp Sfc Temp Sub Temp Dew Temp Wind Precip Traffic Updated
Sensor [A]: Atmospheric - 52.5 - - 39.0 3.1 / NW - - 9/22/2014 12:08:18 PM
Sensor [0]: US30 East Bound Driving Lane No Report - - - - - - 20 / 60.9 9/22/2014 12:08:18 PM
Sensor [1]: US30 West Bound Driving Lane No Report - - - - - - 80 / 158.4 9/22/2014 12:08:18 PM
8-Huron County Garage (200007) Status Air Temp Sfc Temp Sub Temp Dew Temp Wind Precip Traffic Updated
Sensor [A]: Atmospheric - 50.4 - - 40.3 9.3 / W - - 9/22/2014 12:00:45 PM
Sensor [0]: US250 NB Lane Dry - 67.1 - - - - 3 / 57.8 9/22/2014 12:00:45 PM
Sensor [1]: US250 SB Lane Dry - 63.5 - - - - 9 / 36.0 9/22/2014 12:00:45 PM
9-I77 MM 109 @ Belden Village (200008) Status Air Temp Sfc Temp Sub Temp Dew Temp Wind Precip Traffic Updated
Sensor [A]: Atmospheric - 55.6 - - 40.3 5.6 / N - - 9/22/2014 12:02:17 PM
10-SR5@SR45 (200009) Status Air Temp Sfc Temp Sub Temp Dew Temp Wind Precip Traffic Updated
Sensor [A]: Atmospheric - 54.1 - - 41.4 4.3 / NW - - 9/22/2014 12:00:32 PM
Sensor [0]: EB Driving Dry - 68.0 69.8 - - - - 9/22/2014 12:00:32 PM
Sensor [1]: SR5 EB Passing Dry - 69.8 - - - - - 9/22/2014 12:00:32 PM
Sensor [2]: SR5 WB Passing Bridgedeck Dry - 65.3 - - - - - 9/22/2014 12:00:32 PM
11-SR36@SR206 (200010) Status Air Temp Sfc Temp Sub Temp Dew Temp Wind Precip Traffic Updated
Sensor [A]: Atmospheric - 51.8 - - 39.4 7.5 / NW - - 9/22/2014 12:01:17 PM
Sensor [1]: US36 WB Dry - 78.8 - - - - - 9/22/2014 12:01:17 PM
12- US 33 @ MM 11.5 (200011) Status Air Temp Sfc Temp Sub Temp Dew Temp Wind Precip Traffic Updated
Sensor [A]: Atmospheric - 55.2 - - 42.8 7.5 / N - - 9/22/2014 12:01:14 PM
Sensor [0]: US33 EB Driving Dry - 81.7 73.0 - - - - 9/22/2014 12:01:14 PM
Sensor [1]: US33 WB Driving Lane Bridgedeck Dry - 76.3 - - - - - 9/22/2014 12:01:14 PM
13-Knox County Garage (200012) Status Air Temp Sfc Temp Sub Temp Dew Temp Wind Precip Traffic Updated
Sensor [A]: Atmospheric - 56.3 - - 41.4 0.6 / W - - 9/22/2014 12:02:18 PM
Sensor [0]: SR-3 NB Driving Trace Moisture - 87.8 - - - - 15 / 39.1 9/22/2014 12:02:18 PM
Sensor [1]: SR-3 SB Driving Dry - 90.0 - - - - 28 / 34.8 9/22/2014 12:02:18 PM
14-SR13@CR26N/Sheridan Rd (200013) Status Air Temp Sfc Temp Sub Temp Dew Temp Wind Precip Traffic Updated
Sensor [A]: Atmospheric - 54.3 - - 41.9 4.3 / NW - - 9/22/2014 12:02:21 PM
Sensor [0]: SR13 Eastbound Dry - 79.7 - - - - - 9/22/2014 12:02:21 PM
15-US35 @ SR62 (200014) Status Air Temp Sfc Temp Sub Temp Dew Temp Wind Precip Traffic Updated
Sensor [A]: Atmospheric - 56.3 - - 9.7 3.7 / NW - - 9/22/2014 12:03:18 PM
Sensor [0]: US35 Eastbound Driving Dry - 94.1 73.4 - - - - 9/22/2014 12:03:18 PM
Sensor [1]: US35 Westbound Driving Dry - 94.1 - - - - - 9/22/2014 12:03:18 PM
Sensor [2]: SR62 Northbound Bridgedeck Dry - 91.4 - - - - - 9/22/2014 12:03:18 PM
16-SR-752 @ 1.3 Pickaway County (200015) Status Air Temp Sfc Temp Sub Temp Dew Temp Wind Precip Traffic Updated
Sensor [A]: Atmospheric - 57.0 - - 42.4 3.7 / NW - - 9/22/2014 12:00:33 PM
17-US23 @ E. Fairground Road Overpass (200016) Status Air Temp Sfc Temp Sub Temp Dew Temp Wind Precip Traffic Updated
Sensor [A]: Atmospheric - 52.3 - - 38.7 6.2 / NE - - 9/22/2014 11:59:16 AM
Sensor [0]: US23 NorthBound Passing Approach Dry - 73.9 - - - - - 9/22/2014 11:59:16 AM
Sensor [1]: US23 SouthBound Passing Bridgedeck No Report - - - - - - 34 / 57.2 9/22/2014 11:59:16 AM
18-US33 @ SR739 (200017) Status Air Temp Sfc Temp Sub Temp Dew Temp Wind Precip Traffic Updated
Sensor [A]: Atmospheric - 52.5 - - 38.5 5.6 / E - - 9/22/2014 12:01:04 PM
Sensor [0]: US33 Eastbound Driving Shade Dry - 57.2 63.5 - - - - 9/22/2014 12:01:04 PM
Sensor [1]: US33 Eastbound Passing Dry - 95.9 - - - - - 9/22/2014 12:01:04 PM
Sensor [2]: US33 Westbound Passing Dry - 95.0 - - - - - 9/22/2014 12:01:04 PM
Sensor [3]: US33 Westbound Driving Dry - 90.5 - - - - - 9/22/2014 12:01:04 PM
19-US68 @ SLM 1.4 (200018) Status Air Temp Sfc Temp Sub Temp Dew Temp Wind Precip Traffic Updated
Sensor [A]: Atmospheric - 54.7 - - 40.3 5.6 / NE - - 9/22/2014 12:02:26 PM
Sensor [0]: US68 SB Driving Lane Dry - 79.9 66.7 - - - - 9/22/2014 12:02:26 PM
Sensor [1]: US68 NB Driving Lane No Report - - - - - - - 9/22/2014 12:02:26 PM
Sensor [2]: US68 NB Driving Lane Bridgedeck No Report - - - - - - - 9/22/2014 12:02:26 PM
20-SR502 @ SLM 0.5 (200019) Status Air Temp Sfc Temp Sub Temp Dew Temp Wind Precip Traffic Updated
Sensor [A]: Atmospheric - 52.0 - - 39.4 3.7 / N - - 9/22/2014 12:02:42 PM
21-US33 @ SR540 (200020) Status Air Temp Sfc Temp Sub Temp Dew Temp Wind Precip Traffic Updated
Sensor [A]: Atmospheric - 51.1 - - 37.8 5.6 / NW - - 9/22/2014 11:33:57 AM
22-SR29 @ SLM 0.8 (200021) Status Air Temp Sfc Temp Sub Temp Dew Temp Wind Precip Traffic Updated
Sensor [A]: Atmospheric - 57.9 - - 50.0 - - - 9/18/2014 9:22:00 AM
Sensor [0]: SR29 EB Lane Error - - 74.1 - - - 0 / 5.0 9/18/2014 9:22:00 AM
Sensor [1]: SR29 WB Lane Error - - - - - - 1 / 5.0 9/18/2014 9:22:00 AM
23-SR41 @ SR136 Adams County (200022) Status Air Temp Sfc Temp Sub Temp Dew Temp Wind Precip Traffic Updated
Sensor [A]: Atmospheric - 57.6 - - 48.7 2.5 / NW - - 9/22/2014 12:03:35 PM
Sensor [0]: SR136 NB Lane Dry - 87.8 71.6 - - - - 9/22/2014 12:03:35 PM
Sensor [1]: SR136 SB Lane Dry - 86.9 - - - - - 9/22/2014 12:03:35 PM
24-US68@SR125 (200023) Status Air Temp Sfc Temp Sub Temp Dew Temp Wind Precip Traffic Updated
Sensor [A]: Atmospheric - 57.0 - - 1.0 3.1 / W - - 9/22/2014 11:51:03 AM
Sensor [1]: SB US68 Dry - 86.9 - - - - - 9/22/2014 11:51:03 AM
25-Highland County Garage (200024) Status Air Temp Sfc Temp Sub Temp Dew Temp Wind Precip Traffic Updated
Sensor [A]: Atmospheric - 54.3 - - 46.9 - - - 9/22/2014 12:03:13 PM
26-SR32 @ US35 (200025) Status Air Temp Sfc Temp Sub Temp Dew Temp Wind Precip Traffic Updated
Sensor [A]: Atmospheric - 61.0 - - 46.4 9.3 / NW - - 9/22/2014 12:03:14 PM
Sensor [0]: US 35 WB Driving Lane Dry - 104.0 - - - - 17 / 60.9 9/22/2014 12:03:14 PM
Sensor [1]: US 35 EB Driving Lane Dry - 101.3 - - - - 24 / 55.3 9/22/2014 12:03:14 PM
Sensor [2]: SR32 Eastbound Driving Lane Bridgedeck Dry - 102.2 - - - - 21 / 55.3 9/22/2014 12:03:14 PM
Sensor [3]: SR32 Westbound Passing Lane Approach Dry - 96.8 - - - - 0 / 5.0 9/22/2014 12:03:14 PM
27-US52 @ Ice Creek (200026) Status Air Temp Sfc Temp Sub Temp Dew Temp Wind Precip Traffic Updated
Sensor [A]: Atmospheric - 63.0 - - 43.2 1.9 / NW - - 9/22/2014 12:02:14 PM
Sensor [0]: SR52 East Bound Driving Lane Dry - 89.6 71.4 - - - 46 / 54.1 9/22/2014 12:02:14 PM
Sensor [1]: SR52 East Bound Passing Lane Dry - 94.8 - - - - 20 / 62.8 9/22/2014 12:02:14 PM
Sensor [2]: SR52 West Bound Passing Lane Dry - 99.5 - - - - 18 / 57.8 9/22/2014 12:02:14 PM
28-US23 @ SLM 6.5 (200027) Status Air Temp Sfc Temp Sub Temp Dew Temp Wind Precip Traffic Updated
Sensor [A]: Atmospheric - 60.6 - - 48.0 / Unknown - - 9/22/2014 12:08:29 PM
Sensor [0]: US23 NB Passing Lane No Report - - - - - - - 9/22/2014 12:08:29 PM
29-US35 @ MM 14.76 (200028) Status Air Temp Sfc Temp Sub Temp Dew Temp Wind Precip Traffic Updated
Sensor [A]: Atmospheric - 45.0 - - 28.4 - - - 9/8/2014 2:47:00 PM
Sensor [0]: SR35 EB Driving Dry - 114.8 - - - - 35 / 62.8 9/8/2014 2:47:00 PM
Sensor [1]: SR35 WB Passing Error - - - - - - 0 / 47.2 9/8/2014 2:47:00 PM
Sensor [2]: SR35 WB Driving Dry - 68.0 - - - - 1 / 52.2 9/8/2014 2:47:00 PM
Sensor [3]: Bridge Deck Simulator Error - - 50.4 - - - 0 / 55.9 9/8/2014 2:47:00 PM
30-US23 @ SLM 9.2 (200029) Status Air Temp Sfc Temp Sub Temp Dew Temp Wind Precip Traffic Updated
Sensor [A]: Atmospheric - 61.5 - - 46.8 1.2 / N - - 9/22/2014 11:41:36 AM
Sensor [1]: US23 NB Passing Dry - 93.2 - - - - 3 / 42.3 9/22/2014 11:41:36 AM
Sensor [2]: US23 SB Passing Dry - 91.4 - - - - 9 / 55.9 9/22/2014 11:41:36 AM
Sensor [3]: US23 SB Driving Dry - 90.5 - - - - 25 / 51.0 9/22/2014 11:41:36 AM
31-USR 50 MM 17.68 (200030) Status Air Temp Sfc Temp Sub Temp Dew Temp Wind Precip Traffic Updated
Sensor [A]: Atmospheric - 59.4 - - 47.7 1.2 / E - - 9/22/2014 11:40:50 AM
Sensor [0]: US50 Eastbound Driving Dry - 77.0 - - - - - 9/22/2014 11:40:50 AM
Sensor [3]: US50 Westbound Driving Dry - 76.1 - - - - - 9/22/2014 11:40:50 AM
32-USR 35 @ SR 160 (200031) Status Air Temp Sfc Temp Sub Temp Dew Temp Wind Precip Traffic Updated
Sensor [A]: Atmospheric - 61.5 - - 47.7 1.9 / NE - - 9/22/2014 12:00:55 PM
Sensor [2]: US35 Westbound Passing Bridgedeck Dry - 90.5 - - - - - 9/22/2014 12:00:55 PM
Sensor [3]: US35 Westbound Driving Departure Dry - 95.9 - - - - - 9/22/2014 12:00:55 PM
33-US33@mm9.2 (200032) Status Air Temp Sfc Temp Sub Temp Dew Temp Wind Precip Traffic Updated
Sensor [A]: Atmospheric - 59.2 - - 44.6 1.9 / SW - - 9/22/2014 12:02:28 PM
Sensor [1]: US33 Eastbound Passing Bridgedeck Dry - 89.6 - - - - - 9/22/2014 12:02:28 PM
Sensor [3]: US33 Westbound Driving Bridgedeck Dry - 82.4 - - - - - 9/22/2014 12:02:28 PM
34-US33 @ OH7 (200033) Status Air Temp Sfc Temp Sub Temp Dew Temp Wind Precip Traffic Updated
Sensor [A]: Atmospheric - 59.2 - - 45.7 0.6 / W - - 9/22/2014 12:03:27 PM
Sensor [0]: US-33 EB Driving Departure Dry - 91.4 72.5 - - - - 9/22/2014 12:03:27 PM
Sensor [1]: US-33 EB Passing Bridgedeck Dry - 86.9 - - - - - 9/22/2014 12:03:27 PM
Sensor [3]: US-33 WB Driving Approach Dry - 88.7 - - - - - 9/22/2014 12:03:27 PM
35-SR7 @ SLM12.7 (200034) Status Air Temp Sfc Temp Sub Temp Dew Temp Wind Precip Traffic Updated
Sensor [A]: Atmospheric - 57.0 - - 44.2 2.5 / N - - 9/22/2014 12:03:24 PM
36-SR60 @ Monestary Rd (200035) Status Air Temp Sfc Temp Sub Temp Dew Temp Wind Precip Traffic Updated
Sensor [A]: Atmospheric - 57.2 - - 46.8 2.5 / W - - 9/22/2014 12:03:22 PM
Sensor [0]: SR60 EB Lane Dry - 83.3 75.2 - - - - 9/22/2014 12:03:22 PM
Sensor [1]: SR60 WB Lane Dry - 81.5 - - - - - 9/22/2014 12:03:22 PM
37-SR32@SR160 (200036) Status Air Temp Sfc Temp Sub Temp Dew Temp Wind Precip Traffic Updated
Sensor [A]: Atmospheric - 64.8 - - 43.9 2.5 / N - - 9/22/2014 12:02:30 PM
Sensor [2]: SR32 Westbound Passing Bridgedeck Dry - 97.0 - - - - - 9/22/2014 12:02:30 PM
38-SR43@SR9 (200037) Status Air Temp Sfc Temp Sub Temp Dew Temp Wind Precip Traffic Updated
Sensor [A]: Atmospheric - 54.5 - - 39.7 9.3 / NW - - 9/22/2014 12:00:51 PM
Sensor [0]: SR43 NB Dry - 82.4 - - - - - 9/22/2014 12:00:51 PM
Sensor [2]: SR9 SB Dry - 82.4 - - - - - 9/22/2014 12:00:51 PM
39-SR11@SR267 (200038) Status Air Temp Sfc Temp Sub Temp Dew Temp Wind Precip Traffic Updated
Sensor [A]: Atmospheric - 53.6 - - 42.8 3.1 / N - - 9/22/2014 12:00:35 PM
40-Clinton County Garage (200039) Status Air Temp Sfc Temp Sub Temp Dew Temp Wind Precip Traffic Updated
Sensor [A]: Atmospheric - 54.1 - - 43.0 - - - 9/22/2014 12:03:20 PM
41- SR62@SR206 (200042) Status Air Temp Sfc Temp Sub Temp Dew Temp Wind Precip Traffic Updated
Sensor [A]: Atmospheric - 54.5 - - 41.2 3.7 / W - - 9/22/2014 12:00:43 PM
Sensor [0]: SR62 EB Dry - 77.0 - - - - 2 / 39.1 9/22/2014 12:00:43 PM
Sensor [1]: SR62 WB Dry - 76.1 - - - - 1 / 32.3 9/22/2014 12:00:43 PM
42- SR7@ SLM14.65 (200041) Status Air Temp Sfc Temp Sub Temp Dew Temp Wind Precip Traffic Updated
Sensor [A]: Atmospheric - 59.9 - - 42.3 3.1 / NE - - 9/22/2014 12:00:52 PM
Sensor [2]: SB SR7 Passing Dry - 79.7 - - - - - 9/22/2014 12:00:52 PM
51-I-70 @ 1.0 MM (200050) Status Air Temp Sfc Temp Sub Temp Dew Temp Wind Precip Traffic Updated
Sensor [A]: Atmospheric - 51.4 - - 39.0 3.7 / NW - - 9/22/2014 12:00:35 PM
Sensor [0]: IR70 East Bound Passing Lane Dry - 85.1 61.9 - - - 56 / 62.1 9/22/2014 12:00:35 PM
52-18 MM MOT/PRE (200051) Status Air Temp Sfc Temp Sub Temp Dew Temp Wind Precip Traffic Updated
Sensor [A]: Atmospheric - 51.3 - - 32.4 - - - 9/22/2014 12:00:37 PM
Sensor [2]: IR70 West Bound Passing Lane Dry - 83.3 62.4 - - - 26 / 62.8 9/22/2014 12:00:37 PM
53-CLA-70 @ I675 ***Under Construction*** (200052) Status Air Temp Sfc Temp Sub Temp Dew Temp Wind Precip Traffic Updated
Sensor [A]: Atmospheric - 55.0 - - 38.5 4.3 / NW - - 9/22/2014 12:00:49 PM
54-IR70 MM 62 (200053) Status Air Temp Sfc Temp Sub Temp Dew Temp Wind Precip Traffic Updated
Sensor [A]: Atmospheric - 55.9 - - 37.9 5.6 / N - - 9/22/2014 12:02:44 PM
Sensor [1]: I70 WB Passing Dry - 90.5 - - - - 29 / 60.3 9/22/2014 12:02:44 PM
55-IR70 MM 142 (200054) Status Air Temp Sfc Temp Sub Temp Dew Temp Wind Precip Traffic Updated
Sensor [A]: Atmospheric - 54.9 - - 41.9 1.9 / W - - 9/22/2014 12:00:39 PM
Sensor [2]: IR70 West Bound Passing Lane Dry - 80.6 - - - - 25 / 44.1 9/22/2014 12:00:39 PM
56-IR70 MM 169 (200055) Status Air Temp Sfc Temp Sub Temp Dew Temp Wind Precip Traffic Updated
Sensor [A]: Atmospheric - 55.9 - - 44.4 4.3 / W - - 9/22/2014 12:00:41 PM
Sensor [0]: IR70 East Bound Passing Lane Dry - 69.8 71.6 - - - 4 / 18.0 9/22/2014 12:00:41 PM
57-IR70 MM 198 (200056) Status Air Temp Sfc Temp Sub Temp Dew Temp Wind Precip Traffic Updated
Sensor [A]: Atmospheric - 57.0 - - 43.5 3.1 / SE - - 9/22/2014 12:00:43 PM
Sensor [0]: IR70 East Bound Driving Lane Dry - 74.3 71.6 - - - 40 / 57.2 9/22/2014 12:00:43 PM
Sensor [1]: IR70 East Bound Passing Lane Dry - 74.3 - - - - 1 / 26.7 9/22/2014 12:00:43 PM
Sensor [2]: IR70 West Bound Passing Lane Dry - 77.9 - - - - 20 / 57.8 9/22/2014 12:00:43 PM
58-IR470 MM 6 (200057) Status Air Temp Sfc Temp Sub Temp Dew Temp Wind Precip Traffic Updated
Sensor [A]: Atmospheric - 59.5 - - 43.0 3.1 / SE - - 9/22/2014 11:50:48 AM
59- US 127 @ SR 744 (200058) Status Air Temp Sfc Temp Sub Temp Dew Temp Wind Precip Traffic Updated
Sensor [A]: Atmospheric - 53.4 - - 41.0 3.1 / NW - - 9/22/2014 12:00:34 PM
Sensor [0]: US127 NB Bridgedeck Dry - 78.1 - - - - 55 / 64.0 9/22/2014 12:00:34 PM
Sensor [1]: US127 SB Bridgedeck Dry - 79.7 - - - - 31 / 70.8 9/22/2014 12:00:34 PM
60-IR71 MM 62 (200059) Status Air Temp Sfc Temp Sub Temp Dew Temp Wind Precip Traffic Updated
Sensor [A]: Atmospheric - 55.4 - - 39.6 5.0 / N - - 9/22/2014 12:01:49 PM
Sensor [0]: IR71 NB Center Dry - 87.3 64.2 - - - 46 / 62.1 9/22/2014 12:01:49 PM
Sensor [1]: IR71 NB Passing Bridge Deck Dry - 90.5 - - - - 10 / 62.8 9/22/2014 12:01:49 PM
Sensor [2]: IR71 SB Passing Bridge Deck Dry - 93.2 - - - - 5 / 65.2 9/22/2014 12:01:49 PM
Sensor [3]: IR71 SB Center Dry - 86.0 - - - - 51 / 47.2 9/22/2014 12:01:49 PM
61-IR71 MM 79 (200060) Status Air Temp Sfc Temp Sub Temp Dew Temp Wind Precip Traffic Updated
Sensor [A]: Atmospheric - 55.6 - - 38.1 3.7 / NE - - 9/22/2014 12:01:58 PM
Sensor [1]: IR71 North Bound Passing Lane Dry - 87.8 - - - - 25 / 62.1 9/22/2014 12:01:58 PM
Sensor [3]: IR71 South Bound Driving Lane Wet - 82.4 - - - - 46 / 60.3 9/22/2014 12:01:58 PM
62- Cemetary Rd. Over I-270 (200061) Status Air Temp Sfc Temp Sub Temp Dew Temp Wind Precip Traffic Updated
Sensor [A]: Atmospheric - 54.0 - - 38.7 3.1 / NW - - 9/22/2014 12:00:38 PM
Sensor [0]: I270NB Exit to Cemetery Rd WB Dry - 86.9 75.9 - - - 25 / 34.2 9/22/2014 12:00:38 PM
63-I71 MM 144 ***Under Construction*** (200062) Status Air Temp Sfc Temp Sub Temp Dew Temp Wind Precip Traffic Updated
Sensor [A]: Atmospheric - 60.3 - - 47.3 6.2 / E - - 4/9/2013 9:12:09 AM
Sensor [0]: I71 NB Driving (Deck) Dry - 68.9 46.9 - - - 46 / 55.9 4/9/2013 9:12:09 AM
Sensor [1]: I71 NB Passing (Approach) Dry - 60.1 - - - - 0 / 5.0 4/9/2013 9:12:09 AM
Sensor [3]: I71 SB Driving (Departure) Dry - 63.3 - - - - 0 / 65.2 4/9/2013 9:12:09 AM
64-I71 MM 158 (200063) Status Air Temp Sfc Temp Sub Temp Dew Temp Wind Precip Traffic Updated
Sensor [A]: Atmospheric - 51.6 - - 38.3 3.1 / N - - 9/22/2014 12:02:31 PM
65-IR71 MM 174 (200064) Status Air Temp Sfc Temp Sub Temp Dew Temp Wind Precip Traffic Updated
Sensor [A]: Atmospheric - 51.8 - - 40.6 3.7 / W - - 9/22/2014 12:02:35 PM
Sensor [0]: IR71 North Bound Driving Lane Dry - 69.8 - - - - 24 / 59.0 9/22/2014 12:02:35 PM
Sensor [1]: IR71 North Bound Center Lane Dry - 70.9 - - - - 48 / 62.8 9/22/2014 12:02:35 PM
Sensor [2]: IR71 South Bound Center Lane Dry - 70.7 - - - - 50 / 60.9 9/22/2014 12:02:35 PM
66-IR71 MM 195.55 (200065) Status Air Temp Sfc Temp Sub Temp Dew Temp Wind Precip Traffic Updated
Sensor [A]: Atmospheric - 53.1 - - 41.2 5.0 / SW - - 9/22/2014 12:00:39 PM
Sensor [0]: IR71 North Bound Driving Lane Dry - 67.1 31.8 - - - 4 / 55.3 9/22/2014 12:00:39 PM
Sensor [1]: IR71 South Bound Passing Lane Dry - 68.9 - - - - 0 / 54.1 9/22/2014 12:00:39 PM
67-IR71 MM 209 (200066) Status Air Temp Sfc Temp Sub Temp Dew Temp Wind Precip Traffic Updated
Sensor [A]: Atmospheric - 52.7 - - 39.9 6.8 / NW - - 9/22/2014 12:02:38 PM
68-IR271 @ IR77 (200067) Status Air Temp Sfc Temp Sub Temp Dew Temp Wind Precip Traffic Updated
Sensor [A]: Atmospheric - 52.7 - - 39.4 5.6 / NW - - 9/22/2014 12:02:39 PM
Sensor [2]: IR271 SB Passing Lane Bridge Dry - 67.8 - - - - 20 / 57.2 9/22/2014 12:02:39 PM
69-IR275 MM 21 (200068) Status Air Temp Sfc Temp Sub Temp Dew Temp Wind Precip Traffic Updated
Sensor [A]: Atmospheric - 60.4 - - 41.5 1.2 / E - - 9/22/2014 12:02:01 PM
Sensor [0]: I275 MM21 NB Driving Dry - 96.8 68.4 - - - 43 / 39.1 9/22/2014 12:02:01 PM
Sensor [1]: I275 MM21 SB Passing Dry - 93.4 - - - - 41 / 62.8 9/22/2014 12:02:01 PM
Sensor [2]: I275 MM21 SB Driving Dry - 97.7 - - - - 41 / 62.8 9/19/2014 12:02:05 PM
70-IR275 HAM/CLER (200069) Status Air Temp Sfc Temp Sub Temp Dew Temp Wind Precip Traffic Updated
Sensor [A]: Atmospheric - 57.6 - - 43.2 3.1 / NE - - 9/22/2014 12:00:09 PM
Sensor [4]: I-275 SB Center Dry - 83.3 - - - - 51 / 65.2 9/22/2014 12:00:09 PM
71-I675 MONT/GRE (200070) Status Air Temp Sfc Temp Sub Temp Dew Temp Wind Precip Traffic Updated
Sensor [A]: Atmospheric - 54.9 - - 37.9 3.1 / W - - 9/22/2014 12:00:54 PM
Sensor [1]: I-675 North Bound Center Lane Dry - 75.2 - - - - 97 / 62.8 9/22/2014 12:00:54 PM
Sensor [3]: I-675 South Bound Passing Lane Dry - 91.4 - - - - 2 / 65.2 9/22/2014 12:00:54 PM
72-18 MM BUT/HAM (200071) Status Air Temp Sfc Temp Sub Temp Dew Temp Wind Precip Traffic Updated
Sensor [A]: Atmospheric - 57.6 - - 41.7 5.6 / W - - 9/22/2014 12:00:46 PM
Sensor [3]: I75 NB Passing Dry - 80.6 - - - - - 9/22/2014 12:00:46 PM
73-I75mm27.5 SB (200072) Status Air Temp Sfc Temp Sub Temp Dew Temp Wind Precip Traffic Updated
Sensor [A]: Atmospheric - 56.5 - - 41.5 2.5 / W - - 9/22/2014 12:01:02 PM
74-IR75 MM 40 (200073) Status Air Temp Sfc Temp Sub Temp Dew Temp Wind Precip Traffic Updated
Sensor [A]: Atmospheric - 54.9 - - 40.6 5.6 / N - - 9/22/2014 12:00:58 PM
75-SR16@COS/MUS (200074) Status Air Temp Sfc Temp Sub Temp Dew Temp Wind Precip Traffic Updated
Sensor [A]: Atmospheric - 54.5 - - 41.7 6.2 / W - - 9/22/2014 12:01:01 PM
Sensor [0]: SR16 EB Driving Bridgedeck Dry - 77.0 62.6 - - - - 9/22/2014 12:01:01 PM
76-IR75 MM 84 (200075) Status Air Temp Sfc Temp Sub Temp Dew Temp Wind Precip Traffic Updated
Sensor [A]: Atmospheric - 53.1 - - 39.9 3.7 / SW - - 9/22/2014 12:02:33 PM
Sensor [0]: IR75 North Bound Driving Lane Dry - 83.3 77.9 - - - 21 / 49.1 9/22/2014 12:02:33 PM
Sensor [1]: IR75 North Bound Passing Lane Dry - 86.0 - - - - 11 / 46.0 9/22/2014 12:02:33 PM
77-IR75 MM 105 (200076) Status Air Temp Sfc Temp Sub Temp Dew Temp Wind Precip Traffic Updated
Sensor [A]: Atmospheric - 52.3 - - 39.0 1.2 / NW - - 9/22/2014 12:01:26 PM
78-IR75 MM 119 (200077) Status Air Temp Sfc Temp Sub Temp Dew Temp Wind Precip Traffic Updated
Sensor [A]: Atmospheric - 53.2 - - 39.9 3.7 / N - - 9/22/2014 12:01:29 PM
Sensor [0]: IR75 North Bound Passing Lane Dry - 85.1 63.7 - - - 48 / 52.2 9/22/2014 12:01:29 PM
Sensor [1]: IR75 South Bound Passing Lane Dry - - - - - - 1 / 5.0 9/22/2014 12:01:29 PM
79-IR75 MM 141 (200078) Status Air Temp Sfc Temp Sub Temp Dew Temp Wind Precip Traffic Updated
Sensor [A]: Atmospheric - 77.9 - - 64.8 3.1 / S - - 9/4/2014 10:03:16 AM
Sensor [0]: IR75 North Bound Driving Lane Dry - 90.5 - - - - 45 / 59.0 9/4/2014 10:03:16 AM
Sensor [2]: IR75 South Bound Passing Lane Dry - 93.2 - - - - 22 / 60.9 9/4/2014 10:03:16 AM
80-IR77 MM 0 (200079) Status Air Temp Sfc Temp Sub Temp Dew Temp Wind Precip Traffic Updated
Sensor [A]: Atmospheric - 59.0 - - 45.9 1.9 / NW - - 9/22/2014 12:01:55 PM
Sensor [0]: I77 SB Driving Lane No Report - - - - - - - 9/22/2014 12:01:55 PM
81-IR77 MM 16 (200080) Status Air Temp Sfc Temp Sub Temp Dew Temp Wind Precip Traffic Updated
Sensor [A]: Atmospheric - 57.2 - - 46.4 1.9 / S - - 9/22/2014 12:02:01 PM
82-IR77 MM 36 (200081) Status Air Temp Sfc Temp Sub Temp Dew Temp Wind Precip Traffic Updated
Sensor [A]: Atmospheric - 55.2 - - 47.3 1.2 / N - - 9/22/2014 11:48:58 AM
Sensor [0]: IR77 North Bound Driving Lane Error - - - - - - 27 / 64.0 9/9/2014 9:53:00 AM
Sensor [1]: IR77 North Bound Passing Lane Dry - 73.4 - - - - 0 / 52.8 9/9/2014 9:53:00 AM
Sensor [2]: IR77 South Bound Passing Lane Error - - - - - - 34 / 62.8 9/9/2014 9:53:00 AM
Sensor [3]: IR77 South Bound Driving Lane Error - - - - - - 39 / 60.3 9/9/2014 9:53:00 AM
83-IR77 MM 59 **Under Construction** (200082) Status Air Temp Sfc Temp Sub Temp Dew Temp Wind Precip Traffic Updated
Sensor [A]: Atmospheric - 54.9 - - 41.9 4.3 / NW - - 9/22/2014 12:03:30 PM
84-IR77 MM 93 UNDER CONSTRUCTION (200083) Status Air Temp Sfc Temp Sub Temp Dew Temp Wind Precip Traffic Updated
Sensor [A]: Atmospheric - 54.1 - - 41.2 6.8 / W - - 9/22/2014 11:50:37 AM
Sensor [0]: IR77 North Bound Driving Lane No Report - - - - - - 0 / 52.8 9/22/2014 11:50:37 AM
Sensor [1]: IR77 North Bound Passing Lane Error - - - - - - 0 / 6.8 9/22/2014 10:50:39 AM
Sensor [2]: IR77 South Bound Passing Lane Bridge Error - - - - - - 0 / 9.9 9/22/2014 10:50:39 AM
Sensor [3]: IR77 South Bound Driving Lane Bridge Error - - - - - - 64 / 65.2 9/22/2014 10:50:39 AM
85-SR2 @ Huron River (200084) Status Air Temp Sfc Temp Sub Temp Dew Temp Wind Precip Traffic Updated
Sensor [A]: Atmospheric - 53.8 - - 42.1 4.3 / SW - - 9/22/2014 12:03:37 PM
Sensor [1]: SR2 WB Passing Lane Dry - 67.1 - - - - 1 / 5.0 9/22/2014 12:03:37 PM
Sensor [2]: SR2 WB Driving Lane Dry - 66.2 - - - - 38 / 62.1 9/22/2014 12:03:37 PM
86-IR90 @ SR57 (200085) Status Air Temp Sfc Temp Sub Temp Dew Temp Wind Precip Traffic Updated
Sensor [A]: Atmospheric - 54.0 - - 41.0 3.7 / W - - 9/22/2014 11:58:00 AM
Sensor [0]: I-90 East Bound Driving Lane Error - - 32.2 - - - 34 / 6.2 9/22/2014 11:58:00 AM
Sensor [1]: I-90 West Bound Driving Lane Error - - - - - - 0 / 5.0 9/22/2014 11:58:00 AM
87-IR90 ATB/LAKE (200086) Status Air Temp Sfc Temp Sub Temp Dew Temp Wind Precip Traffic Updated
Sensor [A]: Atmospheric - 53.2 - - 42.4 3.7 / W - - 9/22/2014 12:03:38 PM
Sensor [1]: I90 Eastbound Passing Lane Dry - 63.3 - - - - 2 / 5.0 9/22/2014 12:03:38 PM
88-IR90 @ SR11 (200087) Status Air Temp Sfc Temp Sub Temp Dew Temp Wind Precip Traffic Updated
Sensor [A]: Atmospheric - 54.0 - - 42.8 4.3 / W - - 9/22/2014 11:54:00 AM
Sensor [0]: I-90 East Bound Driving Lane Error - - 32.9 - - - 0 / 158.4 9/22/2014 11:54:00 AM
Sensor [1]: I-90 East Bound Passing Lane Dry - 63.1 - - - - 7 / 57.2 9/22/2014 11:54:00 AM
Sensor [2]: I-90 West Bound Passing Lane Dry - 63.1 - - - - 17 / 59.0 9/22/2014 11:54:00 AM
Sensor [3]: I-90 West Bound Driving Lane Error - - - - - - 55 / 57.2 9/22/2014 11:54:00 AM
Sensor [4]: SR 11 South Bound Bridge over I-90 Error - - - - - - 0 / 16.8 9/22/2014 11:54:00 AM
89-IR90 @ PA Line (200088) Status Air Temp Sfc Temp Sub Temp Dew Temp Wind Precip Traffic Updated
Sensor [A]: Atmospheric - 42.6 - - 35.6 3.1 / S - - 4/12/2012 8:59:00 AM
Sensor [0]: Pavement Sensors Removed for Construction Error - - 48.2 - - - 832 / 57.2 4/12/2012 8:59:00 AM
Sensor [1]: Pavement Sensors Removed for Construction Error - - - - - - 679 / 28.0 4/12/2012 8:59:00 AM
Sensor [2]: Pavement Sensors Removed for Construction Error - - - - - - 727 / 23.0 4/12/2012 8:59:00 AM
Sensor [3]: Pavement Sensors Removed for Construction Error - - - - - - 0 / 16.8 4/12/2012 8:59:00 AM
90-IR80 @ PA Line (200089) Status Air Temp Sfc Temp Sub Temp Dew Temp Wind Precip Traffic Updated
Sensor [A]: Atmospheric - 80.6 - - 59.0 - - - 8/18/2014 12:57:00 PM
Sensor [0]: I-80 East Bound Driving Lane Error - - 54.3 - - - 21 / 49.1 8/18/2014 12:57:00 PM
Sensor [1]: I-80 East Bound Passing Lane Error - - - - - - 0 / 47.8 8/18/2014 12:57:00 PM
Sensor [2]: I-80 West Bound Passing Lane Error - - - - - - 0 / 9.9 8/18/2014 12:57:00 PM
91-IR76 MAH/POR (200090) Status Air Temp Sfc Temp Sub Temp Dew Temp Wind Precip Traffic Updated
Sensor [A]: Atmospheric - 54.7 - - 41.5 5.0 / W - - 9/22/2014 12:03:41 PM
Sensor [1]: I-76 East Bound Passing Lane Dry - 65.8 - - - - 22 / 55.9 9/22/2014 12:03:41 PM
Sensor [2]: I-76 West Bound Passing Lane Bridge Dry - 63.3 - - - - 17 / 64.0 9/22/2014 12:03:41 PM
92-IR76 POR/SUM (200091) Status Air Temp Sfc Temp Sub Temp Dew Temp Wind Precip Traffic Updated
Sensor [A]: Atmospheric - 53.2 - - 41.9 2.5 / NW - - 9/22/2014 12:00:40 PM
Sensor [1]: I-76 East Bound Passing Lane Bridge Dry - 62.6 - - - - 43 / 5.0 9/22/2014 12:00:40 PM
94-SR11 ATB/TRUM (200093) Status Air Temp Sfc Temp Sub Temp Dew Temp Wind Precip Traffic Updated
Sensor [A]: Atmospheric - 109.4 - - 32.0 - - - 9/22/2014 11:51:00 AM
Sensor [0]: SR11 North Bound Driving Lane Dry - 65.1 62.4 - - - 13 / 59.0 9/22/2014 11:51:00 AM
Sensor [1]: SR11 North Bound Passing Lane Error - - - - - - 2 / 9.9 9/22/2014 11:51:00 AM
Sensor [2]: SR11 South Bound Passing Lane Error - - - - - - 3 / 65.2 9/22/2014 11:51:00 AM
Sensor [3]: SR11 South Bound Driving Lane Dry - 65.7 - - - - 13 / 62.1 9/22/2014 11:51:00 AM
95-SR11 MAH/COL (200094) Status Air Temp Sfc Temp Sub Temp Dew Temp Wind Precip Traffic Updated
Sensor [A]: Atmospheric - 55.0 - - 44.6 5.6 / NW - - 9/22/2014 11:58:00 AM
Sensor [0]: SR11 North Bound Driving Lane Error - - 45.5 - - - 0 / 64.0 9/22/2014 11:58:00 AM
Sensor [2]: SR11 South Bound Passing Lane Error - - - - - - 6 / 60.9 9/22/2014 11:58:00 AM
Sensor [3]: SR11 South Bound Driving Lane Error - - - - - - 0 / 65.2 9/22/2014 11:58:00 AM
97-SR315 @ I270 (200096) Status Air Temp Sfc Temp Sub Temp Dew Temp Wind Precip Traffic Updated
Sensor [A]: Atmospheric - 57.9 - - 41.5 3.1 / NE - - 9/22/2014 12:00:07 PM
Sensor [2]: I270W Driving Lane Dry - 83.3 - - - - 6 / 60.3 9/22/2014 12:00:07 PM
Sensor [5]: IR Ice Detection Sensor Dry - - - - - - - 9/22/2014 12:00:07 PM
98-I270 SB Ramp to SR161 EB (200097) Status Air Temp Sfc Temp Sub Temp Dew Temp Wind Precip Traffic Updated
Sensor [A]: Atmospheric - 52.5 - - 39.0 3.1 / E - - 9/22/2014 11:40:50 AM
Sensor [4]: SR161 WB Passing Lane Deck Dry - 77.0 - - - - 0 / 60.3 9/22/2014 11:40:50 AM
Sensor [5]: SR161 WB Driving Lane Dry - 80.6 - - - - 0 / 62.1 9/22/2014 11:40:50 AM
99-US30 @ Dalton (200098) Status Air Temp Sfc Temp Sub Temp Dew Temp Wind Precip Traffic Updated
Sensor [A]: Atmospheric - 54.5 - - 42.8 - - - 9/22/2014 12:01:00 PM
Sensor [0]: US30E Driving Lane Error - - 61.3 - - - 0 / 50.3 9/22/2014 12:01:00 PM
Sensor [1]: US30E Passing Lane Dry - 65.1 - - - - 3 / 24.2 9/22/2014 12:01:00 PM
Sensor [2]: US30W Passing Lane - Bridgedeck Dry - 68.5 - - - - 10 / 57.2 9/22/2014 12:01:00 PM
Sensor [3]: US30W Driving Lane - Bridgedeck Error - - - - - - 761 / 62.1 9/22/2014 12:01:00 PM
100-SR225 @ Berlin Reservoir (200099) Status Air Temp Sfc Temp Sub Temp Dew Temp Wind Precip Traffic Updated
Sensor [A]: Atmospheric - 55.8 - - 55.4 0.6 / NE Rain / 0.0 - 9/16/2014 1:02:45 AM
Sensor [0]: SR225 NB Lane No Report - - - - - - 0 / 65.2 9/16/2014 1:02:45 AM
Sensor [1]: SR225 SB Bridgedeck No Report - - - - - - 4 / 9.9 9/16/2014 1:02:45 AM
101-SR45 @ Rock Creek (200100) Status Air Temp Sfc Temp Sub Temp Dew Temp Wind Precip Traffic Updated
Sensor [A]: Atmospheric - 53.8 - - 45.3 - - - 9/22/2014 12:03:48 PM
102-SR7 @ SR167 East (200101) Status Air Temp Sfc Temp Sub Temp Dew Temp Wind Precip Traffic Updated
Sensor [A]: Atmospheric - 36.1 - - 32.0 3.7 / NE - - 11/26/2013 11:55:00 AM
Sensor [0]: SR7 NB Lane Error - - - - - - 6 / 42.3 11/26/2013 11:55:00 AM
Sensor [1]: SR7 SB Lane - Bridge Error - - - - - - 0 / 5.0 11/26/2013 11:55:00 AM
103- I-70 @ SR-79 (200102) Status Air Temp Sfc Temp Sub Temp Dew Temp Wind Precip Traffic Updated
Sensor [A]: Atmospheric - 54.3 - - 40.6 1.2 / NE - - 9/22/2014 12:00:52 PM
Sensor [4]: I 79 NB Bridgedeck Dry - 83.3 - - - - - 9/22/2014 12:00:52 PM
104-SR 3 KNOX/Ashland (200103) Status Air Temp Sfc Temp Sub Temp Dew Temp Wind Precip Traffic Updated
Sensor [A]: Atmospheric - 51.3 - - 41.0 8.1 / W - - 9/22/2014 11:49:47 AM
Sensor [0]: SR3 SB Lane No Report - - - - - - 2 / 52.2 9/22/2014 11:49:47 AM
105-IR70/IR75 (200104) Status Air Temp Sfc Temp Sub Temp Dew Temp Wind Precip Traffic Updated
Sensor [A]: Atmospheric - 54.0 - - 42.4 6.8 / N - - 9/22/2014 12:00:50 PM
Sensor [3]: I75SB Passing Dry - 89.2 - - - - 24 / 65.2 9/22/2014 12:00:50 PM
106-SR39 @ Sugarcreek (200105) Status Air Temp Sfc Temp Sub Temp Dew Temp Wind Precip Traffic Updated
Sensor [A]: Atmospheric - 52.5 - - 42.8 6.8 / NW - - 9/22/2014 11:49:15 AM
Sensor [0]: SR39 EB Lane Error - - - - - - 6 / 51.0 9/9/2014 1:25:00 PM
Sensor [1]: SR39 WB Lane Error - - 77.4 - - - 131 / 47.8 9/9/2014 1:25:00 PM
107-US250 @ Ulrichsville (200106) Status Air Temp Sfc Temp Sub Temp Dew Temp Wind Precip Traffic Updated
Sensor [A]: Atmospheric - 60.6 - - 42.6 2.5 / SE - - 9/22/2014 12:03:31 PM
108-SR183 @ Minerva (200107) Status Air Temp Sfc Temp Sub Temp Dew Temp Wind Precip Traffic Updated
Sensor [A]: Atmospheric - 53.8 - - 42.6 1.9 / E - - 9/22/2014 11:50:11 AM
Sensor [0]: SR183 NB Lane - Bridgedeck No Report - - - - - - 9 / 70.8 9/22/2014 11:50:11 AM
Sensor [1]: SR183 SB Lane Error - - - - - - 4 / 9.9 9/22/2014 10:50:14 AM
109-SR22 @ SR151 (200108) Status Air Temp Sfc Temp Sub Temp Dew Temp Wind Precip Traffic Updated
Sensor [A]: Atmospheric - 56.3 - - 41.5 6.8 / E - - 9/22/2014 12:03:33 PM
Sensor [0]: SR22E Driving Lane Dry - 84.2 62.6 - - - 19 / 67.1 9/22/2014 12:03:33 PM
Sensor [1]: SR22W Passing Lane Dry - 86.0 - - - - 2 / 73.9 9/22/2014 12:03:33 PM
110-SR7 @ SR213 (200109) Status Air Temp Sfc Temp Sub Temp Dew Temp Wind Precip Traffic Updated
Sensor [A]: Atmospheric - 56.1 - - 45.1 1.2 / W - - 9/22/2014 11:51:00 AM
Sensor [0]: SR7 NB Driving No Report - - - - - - 6 / 42.3 9/22/2014 11:51:00 AM
Sensor [1]: SR7 NB Passing Error - - - - - - 6 / 47.2 9/22/2014 10:51:01 AM
Sensor [2]: SR7 SB Passing Departure Error - - - - - - 0 / 57.2 9/22/2014 10:51:01 AM
Sensor [3]: SR7 SB Driving Departure Error - - - - - - 12 / 44.7 9/22/2014 10:51:01 AM
Sensor [4]: SR7 NB Driving Bridgedeck Error - - - - - - - 9/22/2014 10:51:01 AM
Sensor [5]: SR7 SB Passing Bridgedeck Error - - - - - - - 9/22/2014 10:51:01 AM
111-I70 MM 114 (200110) Status Air Temp Sfc Temp Sub Temp Dew Temp Wind Precip Traffic Updated
Sensor [A]: Atmospheric - 54.5 - - 40.3 - - - 9/22/2014 12:00:32 PM
Sensor [2]: I70 WB Passing Lane - Bridge Deck Dry - 73.4 - - - - 59 / 67.7 9/22/2014 12:00:32 PM
112-USR 27 @ 21 MM (200111) Status Air Temp Sfc Temp Sub Temp Dew Temp Wind Precip Traffic Updated
Sensor [A]: Atmospheric - 53.8 - - 39.6 4.3 / NE - - 9/22/2014 12:02:05 PM
Sensor [0]: SR27 NB Lane Dry - 93.2 64.4 - - - 10 / 47.8 9/22/2014 12:02:05 PM
Sensor [1]: SR27 SB Lane Dry - 93.2 - - - - 11 / 52.2 9/22/2014 12:02:05 PM
113-I-275 @ USR 52 (200112) Status Air Temp Sfc Temp Sub Temp Dew Temp Wind Precip Traffic Updated
Sensor [A]: Atmospheric - 58.3 - - 42.3 5.6 / E - - 9/22/2014 12:00:11 PM
Sensor [4]: I275 SB Driving Lane - Bridge Deck Dry - 100.4 - - - - 64 / 60.3 9/22/2014 12:00:11 PM
114-IR71 @ US36 (38000) Status Air Temp Sfc Temp Sub Temp Dew Temp Wind Precip Traffic Updated
Sensor [A]: Atmospheric - 56.8 - - 35.4 6.2 / N - - 9/22/2014 12:01:05 PM
Sensor [0]: I71 SB Driving Dry - 82.4 - - - - - 9/22/2014 12:01:05 PM
Sensor [2]: US36 WB Deck Dry - 80.6 - - - - - 9/22/2014 12:01:05 PM
115-IR71 @ Schrock Road (38001) Status Air Temp Sfc Temp Sub Temp Dew Temp Wind Precip Traffic Updated
Sensor [A]: Atmospheric - 63.0 - - 53.1 4.3 / N - - 9/22/2014 12:01:07 PM
Sensor [0]: Schrock Rd Dry - 97.7 - - - - - 9/22/2014 12:01:07 PM
Sensor [1]: Schrock Rd Deck Dry - 87.4 - - - - - 9/22/2014 12:01:07 PM
116-IR70W @ I270 (38004) Status Air Temp Sfc Temp Sub Temp Dew Temp Wind Precip Traffic Updated
Sensor [A]: Atmospheric - - - - - 3.1 / NW - - 9/22/2014 12:01:09 PM
Sensor [0]: I-70 EB Drive Error - - - - - - - 9/22/2014 12:01:09 PM
117-IR70 @ SR29 (38005) Status Air Temp Sfc Temp Sub Temp Dew Temp Wind Precip Traffic Updated
Sensor [A]: Atmospheric - 57.0 - - 30.0 5.6 / W - - 9/22/2014 12:01:11 PM
Sensor [0]: OH29 NB Drive Error - - - - - - - 9/22/2014 12:01:11 PM
Sensor [1]: OH29 NB Deck Error - - - - - - - 9/22/2014 12:01:11 PM
Sensor [2]: I-70 WB Drive Dry - 80.8 - - - - - 9/22/2014 12:01:11 PM
Sensor [3]: I-70 EB Passing Error - - - - - - - 9/22/2014 12:01:11 PM
118-IR70/IR71/SR315 (38006) Status Air Temp Sfc Temp Sub Temp Dew Temp Wind Precip Traffic Updated
Sensor [A]: Atmospheric - 61.0 - - 36.9 4.3 / NE - - 9/22/2014 11:59:14 AM
Sensor [0]: I-71 / OH315 NB Deck Dry - 65.5 - - - - - 9/22/2014 11:59:14 AM
Sensor [1]: I70 EB to SR315 Ramp Trace Moisture - 96.8 - - - - - 9/22/2014 11:59:14 AM
119-IR71S @ I270 (38007) Status Air Temp Sfc Temp Sub Temp Dew Temp Wind Precip Traffic Updated
Sensor [A]: Atmospheric - 33.1 - - 23.2 7.5 / N - - 1/20/2014 7:31:46 AM
Sensor [2]: I270 EB Passing Error - - - - - - - 1/20/2014 7:31:46 AM
120-US33 @ Hamilton Road (38010) Status Air Temp Sfc Temp Sub Temp Dew Temp Wind Precip Traffic Updated
Sensor [A]: Atmospheric - 55.8 - - 45.0 6.2 / S - - 9/22/2014 12:01:36 PM
Sensor [1]: US33 EB Passing Dry - 81.5 - - - - - 9/22/2014 12:01:36 PM
121-I-670 Over Airport Connector (38014) Status Air Temp Sfc Temp Sub Temp Dew Temp Wind Precip Traffic Updated
Sensor [A]: Atmospheric - 57.4 - - 38.8 1.9 / NE - - 9/22/2014 12:01:43 PM
Sensor [0]: Airport Con Driving REMOVED FOR CONSTRUCTION Error - - - - - - - 9/22/2014 12:01:43 PM
Sensor [1]: Airport Con Deck Dry - 73.0 - - - - - 9/22/2014 12:01:43 PM
Sensor [2]: I-670 EB Passing Dry - 73.6 - - - - - 9/22/2014 12:01:43 PM
Sensor [3]: I-670 WB Passing Dry - 73.6 - - - - - 9/22/2014 12:01:43 PM
122-Medina Line Rd. Over I-271 (612000) Status Air Temp Sfc Temp Sub Temp Dew Temp Wind Precip Traffic Updated
Sensor [A]: Atmospheric - 54.0 - - 38.5 4.3 / W - - 9/22/2014 12:00:08 PM
Sensor [0]: SB Bridge Dry - 62.2 - - - - - 9/22/2014 12:00:08 PM
Sensor [1]: SB Road Error - - - - - - - 9/22/2014 12:00:08 PM
123-Steels Corner Rd. /Mud Creek (612003) Status Air Temp Sfc Temp Sub Temp Dew Temp Wind Precip Traffic Updated
Sensor [A]: Atmospheric - 53.2 - - 48.9 4.3 / NW - - 9/22/2014 12:00:10 PM
Sensor [0]: WB Bridge Dry - 68.2 - - - - - 9/22/2014 12:00:10 PM
Sensor [1]: WB Road Error - - 126.7 - - - - 9/22/2014 12:00:10 PM
124-Old Mill Rd. Over I-480 (612004) Status Air Temp Sfc Temp Sub Temp Dew Temp Wind Precip Traffic Updated
Sensor [A]: Atmospheric - 54.0 - - 43.2 3.7 / W - - 9/22/2014 12:00:12 PM
Sensor [1]: I-480 East Bound Passing Lane Dry - 65.3 - - - - - 9/22/2014 12:00:12 PM
125-Ridgewood Rd. Over Rt 21 (612006) Status Air Temp Sfc Temp Sub Temp Dew Temp Wind Precip Traffic Updated
Sensor [A]: Atmospheric - 55.8 - - 41.4 4.3 / W - - 9/22/2014 12:00:14 PM
Sensor [0]: EB Bridge Deck Error - - - - - - - 9/22/2014 12:00:14 PM
126-Killian Rd. Over I-77 (612011) Status Air Temp Sfc Temp Sub Temp Dew Temp Wind Precip Traffic Updated
Sensor [A]: Atmospheric - 53.2 - - 36.5 4.3 / N - - 9/22/2014 12:00:16 PM
Sensor [0]: EB Bridge Dry - 65.5 71.1 - - - - 9/22/2014 12:00:16 PM
127-US 6 Williams County (582000) Status Air Temp Sfc Temp Sub Temp Dew Temp Wind Precip Traffic Updated
Sensor [A]: Atmospheric - 55.6 - - 40.1 6.8 / W - - 9/22/2014 12:00:15 PM
Sensor [0]: US-6 EB Lane Dry - 95.0 - - - - 6 / 52.2 9/22/2014 12:00:15 PM
Sensor [2]: US6 EB Dry - 85.5 65.7 - - - - 9/22/2014 12:00:15 PM
128-US 20 @ SLM 1.5 ***Under Construction*** (582001) Status Air Temp Sfc Temp Sub Temp Dew Temp Wind Precip Traffic Updated
Sensor [A]: Atmospheric - 56.3 - - 39.7 3.1 / NW - - 9/22/2014 12:00:17 PM
Sensor [0]: US-20 EB Dry - 101.3 - - - - - 9/22/2014 12:00:17 PM
129-US 20 @ SLM 11.5 (582002) Status Air Temp Sfc Temp Sub Temp Dew Temp Wind Precip Traffic Updated
Sensor [A]: Atmospheric - 58.1 - - 43.5 5.6 / NW - - 9/22/2014 12:00:19 PM
Sensor [2]: SR-20A WB Approach Dry - 89.4 66.7 - - - - 9/22/2014 12:00:19 PM
Sensor [3]: SR-20A WB Deck Dry - 90.1 - - - - - 9/22/2014 12:00:19 PM
130-US 20A @ SLM 2.5 Fulton (582003) Status Air Temp Sfc Temp Sub Temp Dew Temp Wind Precip Traffic Updated
Sensor [A]: Atmospheric - 55.0 - - -0.6 1.2 / SW - - 9/22/2014 12:00:21 PM
Sensor [0]: US-20 EB Deck Dry - 58.3 - - - - - 9/22/2014 12:00:21 PM
Sensor [1]: US-20 EB Approach Dry - 61.0 - - - - - 9/22/2014 12:00:21 PM
131-US 20 @ SLM 9.5 Fulton (582004) Status Air Temp Sfc Temp Sub Temp Dew Temp Wind Precip Traffic Updated
Sensor [A]: Atmospheric - 56.5 - - - - - - 9/22/2014 12:00:23 PM
Sensor [0]: US-20 WB Deck Dry - 78.6 - - - - - 9/22/2014 12:00:23 PM
Sensor [1]: US-20 EB Approach Dry - 87.8 - - - - - 9/22/2014 12:00:23 PM
132-SR 64 @ SLM 6.0 Fulton (582005) Status Air Temp Sfc Temp Sub Temp Dew Temp Wind Precip Traffic Updated
Sensor [A]: Atmospheric - 55.0 - - 40.6 5.6 / W - - 9/22/2014 12:00:24 PM
133-US 6 @ SLM .5 (582006) Status Air Temp Sfc Temp Sub Temp Dew Temp Wind Precip Traffic Updated
Sensor [A]: Atmospheric - 58.6 - - 40.6 6.8 / NW - - 9/22/2014 12:00:31 PM
Sensor [0]: US-6 WB Dry - 85.6 63.5 - - - - 9/22/2014 12:00:31 PM
134-SR 108 @ SLM .5 (582007) Status Air Temp Sfc Temp Sub Temp Dew Temp Wind Precip Traffic Updated
Sensor [A]: Atmospheric - 54.7 - - 32.0 2.5 / N - - 9/22/2014 12:00:09 PM
Sensor [0]: SR-108 NB Dry - 99.5 71.8 - - - - 9/22/2014 12:00:09 PM
135-US Rt 6 @ Maumee River (582008) Status Air Temp Sfc Temp Sub Temp Dew Temp Wind Precip Traffic Updated
Sensor [A]: Atmospheric - 55.9 - - 42.8 9.3 / N - - 9/22/2014 12:00:13 PM
Sensor [0]: US-6 EB Deck Error - 76.5 - - - - - 9/22/2014 12:00:13 PM
Sensor [1]: US-6 WB Deck Error - - - - - - - 9/22/2014 12:00:13 PM
136-Rt 65 South Henry County (582009) Status Air Temp Sfc Temp Sub Temp Dew Temp Wind Precip Traffic Updated
Sensor [A]: Atmospheric - 57.7 - - 34.0 3.1 / NW - - 9/22/2014 12:00:15 PM
Sensor [0]: SR-65 NB Dry - 102.2 - - - - - 9/22/2014 12:00:15 PM
137 - SR 64 @ SLM 7.5 Lucas (582010) Status Air Temp Sfc Temp Sub Temp Dew Temp Wind Precip Traffic Updated
Sensor [A]: Atmospheric - 57.2 - - 38.3 5.6 / SE - - 9/22/2014 12:00:16 PM
Sensor [0]: SR-64 EB Approach Dry - 57.4 - - - - - 9/22/2014 12:00:16 PM
Sensor [1]: SR-64 EB @ RPU Dry - 88.5 - - - - - 9/22/2014 12:00:16 PM
138-US 24 near Grand Rapids (582011) Status Air Temp Sfc Temp Sub Temp Dew Temp Wind Precip Traffic Updated
Sensor [A]: Atmospheric - 56.3 - - 38.8 4.3 / N - - 9/22/2014 12:00:17 PM
Sensor [0]: SR-578 SB Maumee River Dry - 81.1 70.5 - - - - 9/22/2014 12:00:17 PM
Sensor [1]: SR-578 SB Dry - 87.6 - - - - - 9/22/2014 12:00:17 PM
139-I-80 & I-475 Lucas ***Under Construction*** (582012) Status Air Temp Sfc Temp Sub Temp Dew Temp Wind Precip Traffic Updated
Sensor [A]: Atmospheric - 72.1 - - 71.6 1.9 / SW - - 10/3/2013 12:40:42 PM
Sensor [0]: I-475 NB Deck Dry - 77.0 - - - - - 10/3/2013 12:40:42 PM
Sensor [1]: I-475 SB Approach Error - - - - - - - 10/3/2013 12:40:42 PM
140-IR 475 @ US 23 Split ***Under Construction*** (582013) Status Air Temp Sfc Temp Sub Temp Dew Temp Wind Precip Traffic Updated
Sensor [A]: Atmospheric - 72.3 - - 71.6 3.7 / Unknown - - 9/22/2014 12:00:37 PM
Sensor [6]: US-23 NB Pass Ln Deck Dry - 81.5 - - - - 0 / 18.0 9/22/2014 12:00:37 PM
141-IR 75 @ SLM 4.9 475 Split (582014) Status Air Temp Sfc Temp Sub Temp Dew Temp Wind Precip Traffic Updated
Sensor [A]: Atmospheric - 56.3 - - 46.4 6.8 / NW - - 9/22/2014 12:00:12 PM
Sensor [1]: I-75 SB Dry - 86.0 - - - - - 9/22/2014 12:00:12 PM
Sensor [3]: I-475 EB Departure Dry - 82.4 - - - - - 9/22/2014 12:00:12 PM
142 - I-280 @ Veterans Glass City Skyway (VGCS) (582016) Status Air Temp Sfc Temp Sub Temp Dew Temp Wind Precip Traffic Updated
Sensor [A]: Atmospheric - 54.1 - - 37.9 6.8 / NW - - 9/22/2014 12:00:13 PM
Sensor [0]: NB I-280 Driving Lane Dry - 87.8 - - - - 38 / 59.0 9/22/2014 12:00:13 PM
Sensor [1]: NB I-280 Center Lane Dry - 85.8 - - - - 37 / 60.3 9/22/2014 12:00:13 PM
Sensor [4]: SB I-280 Center Lane Dry - 78.6 - - - - 49 / 55.3 9/22/2014 12:00:13 PM
143-SR 2 @ MP 31.8 Lucas (582017) Status Air Temp Sfc Temp Sub Temp Dew Temp Wind Precip Traffic Updated
Sensor [A]: Atmospheric - 55.4 - - 41.7 1.2 / NW - - 9/22/2014 12:00:14 PM
Sensor [0]: SR-2 EB Deck Dry - 91.4 - - - - - 9/22/2014 12:00:14 PM
144-IR 75 & Eagleville Rd. (582018) Status Air Temp Sfc Temp Sub Temp Dew Temp Wind Precip Traffic Updated
Sensor [A]: Atmospheric - 76.6 - - 63.0 4.3 / NE - - 8/18/2014 12:00:17 PM
Sensor [0]: I-75 NB Deck Error - - - - - - - 8/18/2014 12:00:17 PM
Sensor [1]: I-75 SB Deck Error - - - - - - - 8/18/2014 12:00:17 PM
145-IR 75 @ SLM 18.36 Wood (582019) Status Air Temp Sfc Temp Sub Temp Dew Temp Wind Precip Traffic Updated
Sensor [A]: Atmospheric - 80.8 - - 54.1 2.5 / E - - 8/7/2014 1:00:20 PM
Sensor [0]: I-75 NB Approach Error - 112.6 - - - - - 8/7/2014 1:00:20 PM
Sensor [1]: I-75 SB Deck Dry - 108.3 - - - - - 8/7/2014 1:00:20 PM
146-I-75 @ I-475 Wood ***Under Construction*** (582020) Status Air Temp Sfc Temp Sub Temp Dew Temp Wind Precip Traffic Updated
Sensor [A]: Atmospheric - 55.2 - - 34.7 8.1 / W - - 9/22/2014 12:00:30 PM
147-I-75 @ I-80 Wood County (582021) Status Air Temp Sfc Temp Sub Temp Dew Temp Wind Precip Traffic Updated
Sensor [A]: Atmospheric - 56.7 - - 46.4 5.6 / N - - 9/22/2014 12:00:33 PM
Sensor [0]: I-75 NB Deck Dry - 77.9 - - - - - 9/22/2014 12:00:33 PM
Sensor [1]: I-75 SB Deck Error - - - - - - - 9/22/2014 12:00:33 PM
148-US-6 @ Rt. 23 (582022) Status Air Temp Sfc Temp Sub Temp Dew Temp Wind Precip Traffic Updated
Sensor [A]: Atmospheric - 55.4 - - 38.8 1.9 / NW - - 9/22/2014 12:00:35 PM
Sensor [0]: US-6 EB Dry - 84.2 - - - - 0 / 9.9 9/22/2014 12:00:35 PM
Sensor [1]: US-23 NB Dry - 86.0 - - - - 0 / 9.9 9/22/2014 12:00:35 PM
149-US-20 @ Lemoyne Rd. (582023) Status Air Temp Sfc Temp Sub Temp Dew Temp Wind Precip Traffic Updated
Sensor [A]: Atmospheric - 59.9 - - 44.6 4.3 / NW - - 9/22/2014 12:00:38 PM
Sensor [0]: US-20 EB Departure Dry - 88.7 - - - - 16 / 60.9 9/22/2014 12:00:38 PM
150-I-280 @ Libbey Rd. (582024) Status Air Temp Sfc Temp Sub Temp Dew Temp Wind Precip Traffic Updated
Sensor [A]: Atmospheric - 53.6 - - 38.5 5.6 / NW - - 9/22/2014 12:00:40 PM
151-SR 2 @ Portage River Bridge (582025) Status Air Temp Sfc Temp Sub Temp Dew Temp Wind Precip Traffic Updated
Sensor [A]: Atmospheric - 53.4 - - 39.7 5.6 / NW - - 9/22/2014 12:00:42 PM
Sensor [0]: SR-2 EB Departure Dry - 70.7 70.7 - - - - 9/22/2014 12:00:42 PM
Sensor [1]: SR-2 WB Deck Frost - -6.3 - - - - - 9/22/2014 12:00:42 PM
152-SR-2@28.5 Bay Br. (582026) Status Air Temp Sfc Temp Sub Temp Dew Temp Wind Precip Traffic Updated
Sensor [A]: Atmospheric - 54.5 - - 50.5 9.3 / SW - - 9/22/2014 12:00:44 PM
Sensor [3]: SR2 EB Driving Lane - Bridge Deck Dry - 72.5 - - - - 0 / 0.0 9/22/2014 12:00:44 PM
153-US-20 @ Sugar Creek (582027) Status Air Temp Sfc Temp Sub Temp Dew Temp Wind Precip Traffic Updated
Sensor [A]: Atmospheric - 57.4 - - 39.2 4.3 / S - - 9/22/2014 12:00:07 PM
Sensor [0]: US-20 EB Driving Dry - 96.8 77.9 - - - 13 / 55.9 9/22/2014 12:00:07 PM
Sensor [1]: US-20 WB Passing Dry - 98.6 - - - - 5 / 62.8 9/22/2014 12:00:07 PM
Sensor [2]: US-20 EB Driving BridgeDeck Dry - 92.3 - - - - 0 / 0.0 9/22/2014 12:00:07 PM
154-US-6 @ Sandusky River Br (582028) Status Air Temp Sfc Temp Sub Temp Dew Temp Wind Precip Traffic Updated
Sensor [A]: Atmospheric - 54.3 - - 41.0 1.2 / W - - 9/22/2014 12:00:09 PM
Sensor [0]: US-6 EB Approach Dry - 77.5 - - - - - 9/22/2014 12:00:09 PM
Sensor [1]: US-6 WB Deck Dry - 71.1 - - - - - 9/22/2014 12:00:09 PM
155-US 6 @ Pickeral Creek (582029) Status Air Temp Sfc Temp Sub Temp Dew Temp Wind Precip Traffic Updated
Sensor [A]: Atmospheric - 20.8 - - 9.5 3.7 / N - - 9/22/2014 12:00:12 PM
Sensor [0]: US-6 WB Departure Error - - - - - - - 9/22/2014 12:00:12 PM
Sensor [1]: US-6 WB Deck Error - 33.1 - - - - - 9/22/2014 12:00:12 PM
156-CR 296 & US 20 MP 31.0 (582030) Status Air Temp Sfc Temp Sub Temp Dew Temp Wind Precip Traffic Updated
Sensor [A]: Atmospheric - 52.7 - - 41.5 3.1 / NW - - 9/22/2014 12:00:15 PM
Sensor [0]: US-20 WB Dry - 75.4 72.1 - - - - 9/22/2014 12:00:15 PM
157-US 23 @ MP 5.5 Seneca (582031) Status Air Temp Sfc Temp Sub Temp Dew Temp Wind Precip Traffic Updated
Sensor [A]: Atmospheric - 52.5 - - 37.8 7.5 / SW - - 9/22/2014 12:00:17 PM
Sensor [0]: US-23 NB Dry - 74.8 - - - - - 9/22/2014 12:00:17 PM
158-SR 12 @ Mp 7.0 Seneca (582032) Status Air Temp Sfc Temp Sub Temp Dew Temp Wind Precip Traffic Updated
Sensor [A]: Atmospheric - 55.8 - - 39.2 5.0 / W - - 9/22/2014 12:00:19 PM
Sensor [0]: SR-12 WB Dry - 97.7 - - - - - 9/22/2014 12:00:19 PM
159-US 224 @ SR 53 Seneca (582033) Status Air Temp Sfc Temp Sub Temp Dew Temp Wind Precip Traffic Updated
Sensor [A]: Atmospheric - 57.7 - - 37.9 - - - 9/22/2014 12:00:21 PM
Sensor [0]: SR-224 EB Bridge Deck Dry - 88.7 - - - - - 9/22/2014 12:00:21 PM
Sensor [1]: US-224 EB Approach Dry - 88.7 - - - - - 9/22/2014 12:00:21 PM
160-SR 4 @ MP 2.35 Seneca (582034) Status Air Temp Sfc Temp Sub Temp Dew Temp Wind Precip Traffic Updated
Sensor [A]: Atmospheric - 53.4 - - 34.5 6.8 / N - - 9/22/2014 12:00:23 PM
Sensor [1]: SR-4 SB Departure Dry - 73.4 62.6 - - - 10 / 60.3 9/22/2014 12:00:23 PM
161-I-90 @ SR-252 (562000) Status Air Temp Sfc Temp Sub Temp Dew Temp Wind Precip Traffic Updated
Sensor [A]: Atmospheric - 54.0 - - 43.3 3.7 / N - - 9/22/2014 12:00:03 PM
Sensor [0]: SR-252 NB RL over I-90 Dry - 68.9 - - - - - 9/22/2014 12:00:03 PM
Sensor [2]: I-90 EB N1 Lane Dry - 68.9 - - - - - 9/22/2014 12:00:03 PM
162-I-90 @ Abbey Rd. (562001) Status Air Temp Sfc Temp Sub Temp Dew Temp Wind Precip Traffic Updated
Sensor [A]: Atmospheric - - - - - / Unknown - - -
Sensor [0]: I-90 EB N3 Lane Wet - 74.7 82.2 - - - - 8/21/2011 12:10:14 AM
Sensor [2]: I-90 WB N3 Lane Bridge Wet - 71.8 - - - - - 8/21/2011 12:10:14 AM
163-I-90 @ E. 140th (562002) Status Air Temp Sfc Temp Sub Temp Dew Temp Wind Precip Traffic Updated
Sensor [A]: Atmospheric - 55.6 - - 43.9 4.3 / W - - 9/22/2014 12:00:23 PM
Sensor [1]: I-90 WB N3 Lane Bridge Dry - 69.3 - - - - - 9/22/2014 12:00:23 PM
Sensor [2]: I-90 EB N3 Lane Bridge Dry - 71.6 - - - - - 9/22/2014 12:00:23 PM
164-I-271 @ I-90 (562003) Status Air Temp Sfc Temp Sub Temp Dew Temp Wind Precip Traffic Updated
Sensor [A]: Atmospheric - 67.6 - - 67.5 1.2 / W - - 9/16/2014 3:40:26 PM
Sensor [0]: I-271 NB TG I-90 EB Dry - 81.1 - - - - - 9/16/2014 3:40:26 PM
Sensor [2]: I-271 NB TG I-90 WB Bridge Dry - 80.6 - - - - - 9/16/2014 3:40:26 PM
Sensor [3]: I-271 NB TG I-90 WB Dry - 83.3 - - - - - 9/16/2014 3:40:26 PM
165-I-480 @ SR-10 (562004) Status Air Temp Sfc Temp Sub Temp Dew Temp Wind Precip Traffic Updated
Sensor [A]: Atmospheric - 55.4 - - 45.1 3.7 / NW - - 9/22/2014 12:00:44 PM
Sensor [0]: I-480 EB N2 Lane Bridge Dry - 66.6 - - - - - 9/22/2014 12:00:44 PM
Sensor [1]: I-480 WB N2 Lane Bridge Dry - 67.6 - - - - - 9/22/2014 12:00:44 PM
166-I-71 @ Snow Rd. (562005) Status Air Temp Sfc Temp Sub Temp Dew Temp Wind Precip Traffic Updated
Sensor [A]: Atmospheric - 54.5 - - 48.7 6.8 / N - - 9/22/2014 12:00:46 PM
Sensor [0]: I-71 NB N3 Lane Bridge Dry - 63.3 - - - - - 9/22/2014 12:00:46 PM
Sensor [1]: I-71 SB N3 Lane Bridge Dry - 62.8 - - - - - 9/22/2014 12:00:46 PM
Sensor [2]: I-71 SB N3 Lane Dry - 67.1 - - - - - 9/22/2014 12:00:46 PM
167-I-77 @ I-480 (562006) Status Air Temp Sfc Temp Sub Temp Dew Temp Wind Precip Traffic Updated
Sensor [A]: Atmospheric - 56.3 - - 46.9 8.1 / NW - - 9/22/2014 12:00:49 PM
Sensor [0]: I-77 NB N2L Br @ SR-17 Error - - - - - - - 9/22/2014 12:00:49 PM
Sensor [1]: I-77 SB N2L Br @ SR-17 Error - - - - - - - 9/22/2014 12:00:49 PM
Sensor [3]: I-77 NB RL Br over I-480 Dry - 68.0 - - - - - 9/22/2014 12:00:49 PM
168-I-480 N @ Miles Rd. (562007) Status Air Temp Sfc Temp Sub Temp Dew Temp Wind Precip Traffic Updated
Sensor [A]: Atmospheric - 53.8 - - 41.0 5.0 / NE - - 9/22/2014 12:00:03 PM
Sensor [0]: I-480 N WB N2 Lane Dry - 67.1 - - - - - 9/22/2014 12:00:03 PM
Sensor [1]: I-480 N WB N2 Lane Br Dry - 65.3 - - - - - 9/22/2014 12:00:03 PM
Sensor [2]: I-480 EB N2 Lane Br Dry - 65.3 - - - - - 9/22/2014 12:00:03 PM
169-I-271 @ US-322 (562008) Status Air Temp Sfc Temp Sub Temp Dew Temp Wind Precip Traffic Updated
Sensor [A]: Atmospheric - 53.4 - - 46.4 3.7 / N - - 9/22/2014 12:00:05 PM
Sensor [0]: I-271 SB N2 Lane Br Dry - 63.5 - - - - - 9/22/2014 12:00:05 PM
Sensor [1]: I-271 SB N2 Lane Dry - 64.6 - - - - - 9/22/2014 12:00:05 PM
Sensor [2]: I-271 NB N2 Lane Br Dry - 64.4 - - - - - 9/22/2014 12:00:05 PM
Sensor [3]: I-271 NB N2 Lane Dry - 65.3 - - - - - 9/22/2014 12:00:05 PM
170-I-71 @ Drake Rd. (562009) Status Air Temp Sfc Temp Sub Temp Dew Temp Wind Precip Traffic Updated
Sensor [A]: Atmospheric - 53.6 - - 41.7 6.8 / NW - - 9/22/2014 12:00:06 PM
Sensor [0]: I-71 NB N2 Lane Dry - 68.9 68.4 - - - - 9/22/2014 12:00:06 PM
Sensor [1]: I-71 NB N2 Lane Br Dry - 64.0 - - - - - 9/22/2014 12:00:06 PM
Sensor [2]: I-71 SB N2 Lane Br Dry - 66.0 - - - - - 9/22/2014 12:00:06 PM
171-I-77 @ SR-82 (562010) Status Air Temp Sfc Temp Sub Temp Dew Temp Wind Precip Traffic Updated
Sensor [A]: Atmospheric - 53.6 - - 44.4 3.7 / NW - - 9/22/2014 12:00:09 PM
Sensor [0]: I-77 NB N2 Lane Br Dry - 63.5 - - - - - 9/22/2014 12:00:09 PM
Sensor [1]: I-77 SB N2 Lane Br Dry - 61.7 - - - - - 9/22/2014 12:00:09 PM
Sensor [2]: I-77 SB N2 Lane Dry - 65.3 - - - - - 9/22/2014 12:00:09 PM
172-US-422 @ Chagrin Blvd. (562011) Status Air Temp Sfc Temp Sub Temp Dew Temp Wind Precip Traffic Updated
Sensor [A]: Atmospheric - 54.3 - - 41.2 3.7 / SW - - 9/22/2014 12:00:11 PM
Sensor [0]: US-422 WB N2 Lane Dry - 66.6 68.5 - - - - 9/22/2014 12:00:11 PM
Sensor [1]: US-422 WB N2 Lane Br Error - - - - - - - 9/22/2014 12:00:11 PM
Sensor [2]: US-422 EB N2 Lane Br Dry - 64.4 - - - - - 9/22/2014 12:00:11 PM
173-US-422 @ SR-44 (562012) Status Air Temp Sfc Temp Sub Temp Dew Temp Wind Precip Traffic Updated
Sensor [A]: Atmospheric - 52.5 - - 41.4 7.5 / NW - - 9/22/2014 12:00:14 PM
Sensor [2]: US-422 EB N2 Lane Br Dry - 64.4 - - - - - 9/22/2014 12:00:14 PM
174- SR-528 @SR-87 (562013) Status Air Temp Sfc Temp Sub Temp Dew Temp Wind Precip Traffic Updated
Sensor [A]: Atmospheric - 53.2 - - 47.7 6.8 / N - - 9/22/2014 12:00:03 PM
Sensor [1]: SR-87 WB E of SR-528 Dry - 70.7 - - - - - 9/22/2014 12:00:03 PM
175-SR-44 @ Mentor Rd. (562014) Status Air Temp Sfc Temp Sub Temp Dew Temp Wind Precip Traffic Updated
Sensor [A]: Atmospheric - 52.3 - - 44.8 6.8 / N - - 9/22/2014 12:00:04 PM
176-SR-528 @ SR-166 (562015) Status Air Temp Sfc Temp Sub Temp Dew Temp Wind Precip Traffic Updated
Sensor [A]: Atmospheric - 52.9 - - 42.6 5.0 / NE - - 9/22/2014 12:00:07 PM
Sensor [0]: SR-528 SB N of SR-166 Dry - 65.3 - - - - - 9/22/2014 12:00:07 PM
Sensor [1]: SR-166 WB W of SR-528 Dry - 66.2 - - - - - 9/22/2014 12:00:07 PM
177-I-90 @ Hermitage Rd. (562016) Status Air Temp Sfc Temp Sub Temp Dew Temp Wind Precip Traffic Updated
Sensor [A]: Atmospheric - 66.7 - - 66.7 1.2 / E - - 6/18/2014 8:10:08 AM
Sensor [0]: I-90 WB N2 Lane Br Error - - - - - - - 6/18/2014 8:10:08 AM
178-I-90 @ Paine Rd. (562017) Status Air Temp Sfc Temp Sub Temp Dew Temp Wind Precip Traffic Updated
Sensor [A]: Atmospheric - 63.9 - - 42.3 6.8 / E - - 5/3/2013 8:30:25 AM
Sensor [0]: I-90 WB N2 Lane Br Error - - - - - - - 5/3/2013 8:30:25 AM
179-US-20 @ Parmly Rd. (562018) Status Air Temp Sfc Temp Sub Temp Dew Temp Wind Precip Traffic Updated
Sensor [A]: Atmospheric - 54.5 - - 45.3 1.2 / NE - - 9/22/2014 12:00:46 PM
Sensor [0]: US-20 WB N2 Lane Dry - 65.3 - - - - - 9/22/2014 12:00:46 PM
180-I270 @ US33 (38015) Status Air Temp Sfc Temp Sub Temp Dew Temp Wind Precip Traffic Updated
Sensor [A]: Atmospheric - 55.8 - - 47.7 6.2 / NE - - 9/22/2014 12:00:05 PM
181-US32 @ Pike & Adams County Line (200180) Status Air Temp Sfc Temp Sub Temp Dew Temp Wind Precip Traffic Updated
Sensor [A]: Atmospheric - 57.0 - - 46.2 1.9 / SW - - 9/22/2014 12:01:45 PM
182-I71 @ SR665 Grove City Outpost (200181) Status Air Temp Sfc Temp Sub Temp Dew Temp Wind Precip Traffic Updated
Sensor [A]: Atmospheric - 55.0 - - 38.8 3.7 / NW - - 9/22/2014 12:02:18 PM
Sensor [1]: I71 NB Passing Lane Dry - 95.0 - - - - 36 / 62.1 9/22/2014 12:02:18 PM
183-US30 @ SR68 (200182) Status Air Temp Sfc Temp Sub Temp Dew Temp Wind Precip Traffic Updated
Sensor [A]: Atmospheric - 51.8 - - 38.8 3.7 / W - - 9/22/2014 12:03:11 PM
Sensor [0]: US30 Eastbound Driving Approach Dry - 85.1 - - - - - 9/22/2014 12:03:11 PM
184 - SR562(Norwood Lateral) @ Reading Road (80000) Status Air Temp Sfc Temp Sub Temp Dew Temp Wind Precip Traffic Updated
Sensor [A]: Atmospheric - 65.3 - - 58.6 5.0 / NE - - 5/7/2013 11:00:57 AM
185 - River Road @ Kibby Lane (80001) Status Air Temp Sfc Temp Sub Temp Dew Temp Wind Precip Traffic Updated
Sensor [A]: Atmospheric - 58.1 - - 44.1 5.6 / E - - 9/22/2014 12:00:35 PM
186-SR49 @ SR81 (200185) Status Air Temp Sfc Temp Sub Temp Dew Temp Wind Precip Traffic Updated
Sensor [A]: Atmospheric - 54.9 - - 39.7 1.9 / N - - 9/22/2014 12:03:17 PM
Sensor [0]: SR81 Eastbound Approach Dry - 100.4 - - - - - 9/22/2014 12:03:17 PM
Sensor [1]: SR81 Westbound Bridgedeck Dry - 101.3 - - - - - 9/22/2014 12:03:17 PM
187-SR15 @ SR613 (200186) Status Air Temp Sfc Temp Sub Temp Dew Temp Wind Precip Traffic Updated
Sensor [A]: Atmospheric - 53.2 - - 40.5 6.8 / N - - 9/22/2014 11:59:07 AM
Sensor [0]: SR15 NB Lane Dry - 79.9 - - - - - 9/22/2014 11:59:07 AM